sensor_id;sensor_type;location;lat;lon;timestamp;temperature;humidity
6407;DHT22;3236;51.022;6.818;2022-11-15T00:01:08;9.90;99.90
6407;DHT22;3236;51.022;6.818;2022-11-15T00:03:35;10.10;99.90
6407;DHT22;3236;51.022;6.818;2022-11-15T00:06:03;10.80;99.90
6407;DHT22;3236;51.022;6.818;2022-11-15T00:08:31;10.10;99.90
6407;DHT22;3236;51.022;6.818;2022-11-15T00:10:59;9.80;99.90
6407;DHT22;3236;51.022;6.818;2022-11-15T00:13:28;10.40;99.90
6407;DHT22;3236;51.022;6.818;2022-11-15T00:15:57;10.10;99.90
6407;DHT22;3236;51.022;6.818;2022-11-15T00:18:27;10.00;99.90
6407;DHT22;3236;51.022;6.818;2022-11-15T00:23:22;10.30;99.90
6407;DHT22;3236;51.022;6.818;2022-11-15T00:25:55;10.20;99.90
6407;DHT22;3236;51.022;6.818;2022-11-15T00:28:23;10.30;99.90
6407;DHT22;3236;51.022;6.818;2022-11-15T00:30:59;10.40;99.90
6407;DHT22;3236;51.022;6.818;2022-11-15T00:33:26;10.60;99.90
6407;DHT22;3236;51.022;6.818;2022-11-15T00:35:54;10.50;99.90
6407;DHT22;3236;51.022;6.818;2022-11-15T00:38:25;10.40;99.90
6407;DHT22;3236;51.022;6.818;2022-11-15T00:40:52;10.50;99.90
6407;DHT22;3236;51.022;6.818;2022-11-15T00:43:19;10.60;99.90
6407;DHT22;3236;51.022;6.818;2022-11-15T00:48:15;10.60;99.90
6407;DHT22;3236;51.022;6.818;2022-11-15T00:50:42;10.40;99.90
6407;DHT22;3236;51.022;6.818;2022-11-15T00:53:09;10.60;99.90
6407;DHT22;3236;51.022;6.818;2022-11-15T00:58:05;10.90;99.90
6407;DHT22;3236;51.022;6.818;2022-11-15T01:03:00;10.80;99.90
6407;DHT22;3236;51.022;6.818;2022-11-15T01:10:28;10.70;99.90
6407;DHT22;3236;51.022;6.818;2022-11-15T01:12:55;10.60;99.90
6407;DHT22;3236;51.022;6.818;2022-11-15T01:15:22;10.80;99.90
6407;DHT22;3236;51.022;6.818;2022-11-15T01:17:49;10.70;99.90
6407;DHT22;3236;51.022;6.818;2022-11-15T01:20:16;10.20;99.90
6407;DHT22;3236;51.022;6.818;2022-11-15T01:22:45;10.60;99.90
6407;DHT22;3236;51.022;6.818;2022-11-15T01:25:12;10.80;99.90
6407;DHT22;3236;51.022;6.818;2022-11-15T01:27:40;11.00;99.90
6407;DHT22;3236;51.022;6.818;2022-11-15T01:35:03;11.30;99.90
6407;DHT22;3236;51.022;6.818;2022-11-15T01:40:00;11.40;99.90
6407;DHT22;3236;51.022;6.818;2022-11-15T01:42:27;11.10;99.90
6407;DHT22;3236;51.022;6.818;2022-11-15T01:44:54;11.30;99.90
6407;DHT22;3236;51.022;6.818;2022-11-15T01:47:24;11.50;99.90
6407;DHT22;3236;51.022;6.818;2022-11-15T01:49:55;11.00;99.90
6407;DHT22;3236;51.022;6.818;2022-11-15T01:52:25;10.90;99.90
6407;DHT22;3236;51.022;6.818;2022-11-15T01:54:56;12.80;99.90
6407;DHT22;3236;51.022;6.818;2022-11-15T01:57:27;11.30;99.90
6407;DHT22;3236;51.022;6.818;2022-11-15T02:00:02;12.80;99.90
6407;DHT22;3236;51.022;6.818;2022-11-15T02:02:31;11.70;99.90
6407;DHT22;3236;51.022;6.818;2022-11-15T02:04:59;11.30;99.90
6407;DHT22;3236;51.022;6.818;2022-11-15T02:07:26;11.40;99.90
6407;DHT22;3236;51.022;6.818;2022-11-15T02:09:58;11.90;99.90
6407;DHT22;3236;51.022;6.818;2022-11-15T02:12:28;11.80;99.90
6407;DHT22;3236;51.022;6.818;2022-11-15T02:14:56;11.80;99.90
6407;DHT22;3236;51.022;6.818;2022-11-15T02:17:37;11.70;99.90
6407;DHT22;3236;51.022;6.818;2022-11-15T02:20:33;11.50;99.90
6407;DHT22;3236;51.022;6.818;2022-11-15T02:23:31;11.20;99.90
6407;DHT22;3236;51.022;6.818;2022-11-15T02:26:18;11.90;99.90
6407;DHT22;3236;51.022;6.818;2022-11-15T02:34:02;11.40;99.90
6407;DHT22;3236;51.022;6.818;2022-11-15T02:39:10;11.70;99.90
6407;DHT22;3236;51.022;6.818;2022-11-15T02:41:45;11.50;99.90
6407;DHT22;3236;51.022;6.818;2022-11-15T02:44:16;11.30;99.90
6407;DHT22;3236;51.022;6.818;2022-11-15T02:46:50;11.80;99.90
6407;DHT22;3236;51.022;6.818;2022-11-15T02:49:36;11.90;99.90
6407;DHT22;3236;51.022;6.818;2022-11-15T02:52:04;11.50;99.90
6407;DHT22;3236;51.022;6.818;2022-11-15T02:54:33;11.60;99.90
6407;DHT22;3236;51.022;6.818;2022-11-15T03:02:59;11.70;99.90
6407;DHT22;3236;51.022;6.818;2022-11-15T03:05:37;11.60;99.90
6407;DHT22;3236;51.022;6.818;2022-11-15T03:08:20;11.70;99.90
6407;DHT22;3236;51.022;6.818;2022-11-15T03:10:56;11.60;99.90
6407;DHT22;3236;51.022;6.818;2022-11-15T03:13:30;11.60;99.90
6407;DHT22;3236;51.022;6.818;2022-11-15T03:16:07;11.40;99.90
6407;DHT22;3236;51.022;6.818;2022-11-15T03:18:40;11.20;99.90
6407;DHT22;3236;51.022;6.818;2022-11-15T03:21:11;11.30;99.90
6407;DHT22;3236;51.022;6.818;2022-11-15T03:23:39;11.30;99.90
6407;DHT22;3236;51.022;6.818;2022-11-15T03:26:09;11.20;99.90
6407;DHT22;3236;51.022;6.818;2022-11-15T03:28:42;11.10;99.90
6407;DHT22;3236;51.022;6.818;2022-11-15T03:31:12;11.20;99.90
6407;DHT22;3236;51.022;6.818;2022-11-15T03:34:04;11.10;99.90
6407;DHT22;3236;51.022;6.818;2022-11-15T03:36:34;11.10;99.90
6407;DHT22;3236;51.022;6.818;2022-11-15T03:39:08;11.20;99.90
6407;DHT22;3236;51.022;6.818;2022-11-15T03:41:39;11.20;99.90
6407;DHT22;3236;51.022;6.818;2022-11-15T03:46:45;10.90;99.90
6407;DHT22;3236;51.022;6.818;2022-11-15T03:49:22;11.20;99.90
6407;DHT22;3236;51.022;6.818;2022-11-15T03:51:49;11.00;99.90
6407;DHT22;3236;51.022;6.818;2022-11-15T03:54:20;11.20;99.90
6407;DHT22;3236;51.022;6.818;2022-11-15T04:01:44;11.30;99.90
6407;DHT22;3236;51.022;6.818;2022-11-15T04:04:12;11.00;99.90
6407;DHT22;3236;51.022;6.818;2022-11-15T04:06:40;10.90;99.90
6407;DHT22;3236;51.022;6.818;2022-11-15T04:09:07;11.20;99.90
6407;DHT22;3236;51.022;6.818;2022-11-15T04:11:38;11.00;99.90
6407;DHT22;3236;51.022;6.818;2022-11-15T04:14:05;11.50;99.90
6407;DHT22;3236;51.022;6.818;2022-11-15T04:19:02;11.50;99.90
6407;DHT22;3236;51.022;6.818;2022-11-15T04:21:49;11.20;99.90
6407;DHT22;3236;51.022;6.818;2022-11-15T04:24:33;11.40;99.90
6407;DHT22;3236;51.022;6.818;2022-11-15T04:32:06;11.60;99.90
6407;DHT22;3236;51.022;6.818;2022-11-15T04:34:33;10.80;99.90
6407;DHT22;3236;51.022;6.818;2022-11-15T04:37:02;11.20;99.90
6407;DHT22;3236;51.022;6.818;2022-11-15T04:39:42;11.20;99.90
6407;DHT22;3236;51.022;6.818;2022-11-15T04:42:10;11.20;99.90
6407;DHT22;3236;51.022;6.818;2022-11-15T04:44:37;11.30;99.90
6407;DHT22;3236;51.022;6.818;2022-11-15T04:47:04;11.20;99.90
6407;DHT22;3236;51.022;6.818;2022-11-15T04:49:32;11.60;99.90
6407;DHT22;3236;51.022;6.818;2022-11-15T04:51:59;11.20;99.90
6407;DHT22;3236;51.022;6.818;2022-11-15T04:54:27;11.10;99.90
6407;DHT22;3236;51.022;6.818;2022-11-15T04:56:54;11.20;99.90
6407;DHT22;3236;51.022;6.818;2022-11-15T04:59:21;11.30;99.90
6407;DHT22;3236;51.022;6.818;2022-11-15T05:01:48;11.00;99.90
6407;DHT22;3236;51.022;6.818;2022-11-15T05:04:15;11.10;99.90
6407;DHT22;3236;51.022;6.818;2022-11-15T05:06:44;10.90;99.90
6407;DHT22;3236;51.022;6.818;2022-11-15T05:09:12;11.00;99.90
6407;DHT22;3236;51.022;6.818;2022-11-15T05:16:36;10.80;99.90
6407;DHT22;3236;51.022;6.818;2022-11-15T05:19:04;11.20;99.90
6407;DHT22;3236;51.022;6.818;2022-11-15T05:21:32;11.80;99.90
6407;DHT22;3236;51.022;6.818;2022-11-15T05:23:59;11.40;99.90
6407;DHT22;3236;51.022;6.818;2022-11-15T05:26:27;11.60;99.90
6407;DHT22;3236;51.022;6.818;2022-11-15T05:28:56;11.60;99.90
6407;DHT22;3236;51.022;6.818;2022-11-15T05:31:24;11.70;99.90
6407;DHT22;3236;51.022;6.818;2022-11-15T05:36:24;12.00;99.90
6407;DHT22;3236;51.022;6.818;2022-11-15T05:38:54;12.10;99.90
6407;DHT22;3236;51.022;6.818;2022-11-15T05:41:24;11.90;99.90
6407;DHT22;3236;51.022;6.818;2022-11-15T05:43:56;12.10;99.90
6407;DHT22;3236;51.022;6.818;2022-11-15T05:46:26;11.90;99.90
6407;DHT22;3236;51.022;6.818;2022-11-15T05:48:54;11.70;99.90
6407;DHT22;3236;51.022;6.818;2022-11-15T05:51:25;11.50;99.90
6407;DHT22;3236;51.022;6.818;2022-11-15T05:53:55;12.30;99.90
6407;DHT22;3236;51.022;6.818;2022-11-15T05:56:23;11.70;99.90
6407;DHT22;3236;51.022;6.818;2022-11-15T05:58:52;11.60;99.90
6407;DHT22;3236;51.022;6.818;2022-11-15T06:01:22;11.70;99.90
6407;DHT22;3236;51.022;6.818;2022-11-15T06:03:49;11.50;99.90
6407;DHT22;3236;51.022;6.818;2022-11-15T06:06:16;11.60;99.90
6407;DHT22;3236;51.022;6.818;2022-11-15T06:08:45;11.80;99.90
6407;DHT22;3236;51.022;6.818;2022-11-15T06:11:13;11.40;99.90
6407;DHT22;3236;51.022;6.818;2022-11-15T06:16:08;11.10;99.90
6407;DHT22;3236;51.022;6.818;2022-11-15T06:18:37;11.40;99.90
6407;DHT22;3236;51.022;6.818;2022-11-15T06:21:05;11.60;99.90
6407;DHT22;3236;51.022;6.818;2022-11-15T06:23:34;11.10;99.90
6407;DHT22;3236;51.022;6.818;2022-11-15T06:26:02;11.30;99.90
6407;DHT22;3236;51.022;6.818;2022-11-15T06:28:30;11.10;99.90
6407;DHT22;3236;51.022;6.818;2022-11-15T06:31:03;11.50;99.90
6407;DHT22;3236;51.022;6.818;2022-11-15T06:33:30;11.20;99.90
6407;DHT22;3236;51.022;6.818;2022-11-15T06:36:01;10.90;99.90
6407;DHT22;3236;51.022;6.818;2022-11-15T06:38:28;11.00;99.90
6407;DHT22;3236;51.022;6.818;2022-11-15T06:41:01;11.50;99.90
6407;DHT22;3236;51.022;6.818;2022-11-15T06:43:39;10.70;99.90
6407;DHT22;3236;51.022;6.818;2022-11-15T06:48:46;11.00;99.90
6407;DHT22;3236;51.022;6.818;2022-11-15T06:51:14;11.00;99.90
6407;DHT22;3236;51.022;6.818;2022-11-15T06:53:41;11.30;99.90
6407;DHT22;3236;51.022;6.818;2022-11-15T06:56:08;11.30;99.90
6407;DHT22;3236;51.022;6.818;2022-11-15T06:58:36;10.90;99.90
6407;DHT22;3236;51.022;6.818;2022-11-15T07:03:34;11.30;99.90
6407;DHT22;3236;51.022;6.818;2022-11-15T07:06:02;10.60;99.90
6407;DHT22;3236;51.022;6.818;2022-11-15T07:08:31;10.50;99.90
6407;DHT22;3236;51.022;6.818;2022-11-15T07:11:04;10.70;99.90
6407;DHT22;3236;51.022;6.818;2022-11-15T07:13:33;11.10;99.90
6407;DHT22;3236;51.022;6.818;2022-11-15T07:16:02;10.90;99.90
6407;DHT22;3236;51.022;6.818;2022-11-15T07:18:32;10.90;99.90
6407;DHT22;3236;51.022;6.818;2022-11-15T07:21:03;10.80;99.90
6407;DHT22;3236;51.022;6.818;2022-11-15T07:23:32;11.20;99.90
6407;DHT22;3236;51.022;6.818;2022-11-15T07:26:00;10.80;99.90
6407;DHT22;3236;51.022;6.818;2022-11-15T07:28:27;11.00;99.90
6407;DHT22;3236;51.022;6.818;2022-11-15T07:33:22;11.20;99.90
6407;DHT22;3236;51.022;6.818;2022-11-15T07:45:44;11.00;99.90
6407;DHT22;3236;51.022;6.818;2022-11-15T07:50:41;10.80;99.90
6407;DHT22;3236;51.022;6.818;2022-11-15T07:53:09;11.00;99.90
6407;DHT22;3236;51.022;6.818;2022-11-15T07:55:37;9.30;99.90
6407;DHT22;3236;51.022;6.818;2022-11-15T07:58:12;11.00;99.90
6407;DHT22;3236;51.022;6.818;2022-11-15T08:00:47;10.90;99.90
6407;DHT22;3236;51.022;6.818;2022-11-15T08:03:16;11.20;99.90
6407;DHT22;3236;51.022;6.818;2022-11-15T08:05:43;10.90;99.90
6407;DHT22;3236;51.022;6.818;2022-11-15T08:13:13;11.00;99.90
6407;DHT22;3236;51.022;6.818;2022-11-15T08:15:41;11.10;99.90
6407;DHT22;3236;51.022;6.818;2022-11-15T08:18:10;10.80;99.90
6407;DHT22;3236;51.022;6.818;2022-11-15T08:20:38;11.00;99.90
6407;DHT22;3236;51.022;6.818;2022-11-15T08:23:06;11.20;99.90
6407;DHT22;3236;51.022;6.818;2022-11-15T08:25:34;11.40;99.90
6407;DHT22;3236;51.022;6.818;2022-11-15T08:28:04;10.80;99.90
6407;DHT22;3236;51.022;6.818;2022-11-15T08:30:35;10.70;99.90
6407;DHT22;3236;51.022;6.818;2022-11-15T08:33:03;11.00;99.90
6407;DHT22;3236;51.022;6.818;2022-11-15T08:35:33;10.70;99.90
6407;DHT22;3236;51.022;6.818;2022-11-15T08:38:04;11.10;99.90
6407;DHT22;3236;51.022;6.818;2022-11-15T08:40:35;11.10;99.90
6407;DHT22;3236;51.022;6.818;2022-11-15T08:53:04;11.00;99.90
6407;DHT22;3236;51.022;6.818;2022-11-15T08:55:32;11.60;99.90
6407;DHT22;3236;51.022;6.818;2022-11-15T08:57:59;11.40;99.90
6407;DHT22;3236;51.022;6.818;2022-11-15T09:00:29;11.40;99.90
6407;DHT22;3236;51.022;6.818;2022-11-15T09:02:58;11.20;99.90
6407;DHT22;3236;51.022;6.818;2022-11-15T09:05:26;12.00;99.90
6407;DHT22;3236;51.022;6.818;2022-11-15T09:07:53;12.10;99.90
6407;DHT22;3236;51.022;6.818;2022-11-15T09:12:48;11.90;99.90
6407;DHT22;3236;51.022;6.818;2022-11-15T09:15:16;12.30;99.90
6407;DHT22;3236;51.022;6.818;2022-11-15T09:17:43;12.20;99.90
6407;DHT22;3236;51.022;6.818;2022-11-15T09:20:15;12.30;99.90
6407;DHT22;3236;51.022;6.818;2022-11-15T09:22:42;12.00;99.90
6407;DHT22;3236;51.022;6.818;2022-11-15T09:25:09;12.00;99.90
6407;DHT22;3236;51.022;6.818;2022-11-15T09:27:37;12.40;99.90
6407;DHT22;3236;51.022;6.818;2022-11-15T09:30:05;12.80;99.90
6407;DHT22;3236;51.022;6.818;2022-11-15T09:37:33;12.40;99.90
6407;DHT22;3236;51.022;6.818;2022-11-15T09:40:00;12.70;99.90
6407;DHT22;3236;51.022;6.818;2022-11-15T09:42:42;12.30;99.90
6407;DHT22;3236;51.022;6.818;2022-11-15T09:45:16;12.50;99.90
6407;DHT22;3236;51.022;6.818;2022-11-15T09:48:04;12.20;99.90
6407;DHT22;3236;51.022;6.818;2022-11-15T09:50:37;12.80;99.90
6407;DHT22;3236;51.022;6.818;2022-11-15T09:53:11;12.50;99.90
6407;DHT22;3236;51.022;6.818;2022-11-15T09:55:45;12.50;99.90
6407;DHT22;3236;51.022;6.818;2022-11-15T09:58:24;12.50;99.90
6407;DHT22;3236;51.022;6.818;2022-11-15T10:00:54;12.40;99.90
6407;DHT22;3236;51.022;6.818;2022-11-15T10:03:27;12.40;99.90
6407;DHT22;3236;51.022;6.818;2022-11-15T10:05:59;12.60;99.90
6407;DHT22;3236;51.022;6.818;2022-11-15T10:08:41;12.80;99.90
6407;DHT22;3236;51.022;6.818;2022-11-15T10:11:18;13.30;99.90
6407;DHT22;3236;51.022;6.818;2022-11-15T10:13:48;13.00;99.90
6407;DHT22;3236;51.022;6.818;2022-11-15T10:16:28;12.90;99.90
6407;DHT22;3236;51.022;6.818;2022-11-15T10:19:05;13.20;99.90
6407;DHT22;3236;51.022;6.818;2022-11-15T10:21:50;13.00;99.90
6407;DHT22;3236;51.022;6.818;2022-11-15T10:24:27;13.10;99.90
6407;DHT22;3236;51.022;6.818;2022-11-15T10:26:55;13.20;99.90
6407;DHT22;3236;51.022;6.818;2022-11-15T10:29:24;13.00;99.90
6407;DHT22;3236;51.022;6.818;2022-11-15T10:34:20;13.00;99.90
6407;DHT22;3236;51.022;6.818;2022-11-15T10:36:57;13.30;99.90
6407;DHT22;3236;51.022;6.818;2022-11-15T10:39:26;13.30;99.90
6407;DHT22;3236;51.022;6.818;2022-11-15T10:41:54;13.50;99.90
6407;DHT22;3236;51.022;6.818;2022-11-15T10:44:27;14.00;99.90
6407;DHT22;3236;51.022;6.818;2022-11-15T10:47:26;14.10;99.90
6407;DHT22;3236;51.022;6.818;2022-11-15T10:49:56;13.90;99.90
6407;DHT22;3236;51.022;6.818;2022-11-15T10:52:23;14.10;99.90
6407;DHT22;3236;51.022;6.818;2022-11-15T10:54:55;14.40;99.90
6407;DHT22;3236;51.022;6.818;2022-11-15T10:57:26;14.80;99.90
6407;DHT22;3236;51.022;6.818;2022-11-15T10:59:56;15.20;99.90
6407;DHT22;3236;51.022;6.818;2022-11-15T11:02:35;15.70;99.90
6407;DHT22;3236;51.022;6.818;2022-11-15T11:07:57;15.90;99.90
6407;DHT22;3236;51.022;6.818;2022-11-15T11:10:27;16.80;99.90
6407;DHT22;3236;51.022;6.818;2022-11-15T11:13:12;16.70;99.90
6407;DHT22;3236;51.022;6.818;2022-11-15T11:15:45;16.90;99.90
6407;DHT22;3236;51.022;6.818;2022-11-15T11:18:20;17.30;99.90
6407;DHT22;3236;51.022;6.818;2022-11-15T11:20:52;17.40;99.90
6407;DHT22;3236;51.022;6.818;2022-11-15T11:23:36;16.90;99.10
6407;DHT22;3236;51.022;6.818;2022-11-15T11:26:22;16.70;99.60
6407;DHT22;3236;51.022;6.818;2022-11-15T11:29:00;16.10;99.70
6407;DHT22;3236;51.022;6.818;2022-11-15T11:31:34;16.10;99.90
6407;DHT22;3236;51.022;6.818;2022-11-15T11:34:15;16.10;99.90
6407;DHT22;3236;51.022;6.818;2022-11-15T11:36:48;17.00;99.90
6407;DHT22;3236;51.022;6.818;2022-11-15T11:39:24;16.60;99.90
6407;DHT22;3236;51.022;6.818;2022-11-15T11:42:07;17.60;99.50
6407;DHT22;3236;51.022;6.818;2022-11-15T11:44:47;17.70;97.80
6407;DHT22;3236;51.022;6.818;2022-11-15T11:47:22;17.90;98.50
6407;DHT22;3236;51.022;6.818;2022-11-15T11:49:51;17.80;97.60
6407;DHT22;3236;51.022;6.818;2022-11-15T11:52:24;18.60;96.50
6407;DHT22;3236;51.022;6.818;2022-11-15T11:54:59;18.40;95.60
6407;DHT22;3236;51.022;6.818;2022-11-15T11:57:34;18.00;96.20
6407;DHT22;3236;51.022;6.818;2022-11-15T12:00:12;18.30;96.30
6407;DHT22;3236;51.022;6.818;2022-11-15T12:02:43;17.50;96.10
6407;DHT22;3236;51.022;6.818;2022-11-15T12:05:18;18.00;98.70
6407;DHT22;3236;51.022;6.818;2022-11-15T12:07:46;17.40;98.90
6407;DHT22;3236;51.022;6.818;2022-11-15T12:10:19;17.30;99.70
6407;DHT22;3236;51.022;6.818;2022-11-15T12:12:55;17.50;99.10
6407;DHT22;3236;51.022;6.818;2022-11-15T12:15:26;17.80;98.60
6407;DHT22;3236;51.022;6.818;2022-11-15T12:17:55;17.50;99.00
6407;DHT22;3236;51.022;6.818;2022-11-15T12:20:24;17.60;99.10
6407;DHT22;3236;51.022;6.818;2022-11-15T12:22:55;18.60;98.70
6407;DHT22;3236;51.022;6.818;2022-11-15T12:25:27;18.60;97.60
6407;DHT22;3236;51.022;6.818;2022-11-15T12:28:01;18.80;97.50
6407;DHT22;3236;51.022;6.818;2022-11-15T12:30:39;18.50;97.20
6407;DHT22;3236;51.022;6.818;2022-11-15T12:33:36;18.10;96.90
6407;DHT22;3236;51.022;6.818;2022-11-15T12:36:05;18.00;96.30
6407;DHT22;3236;51.022;6.818;2022-11-15T12:38:54;17.20;99.70
6407;DHT22;3236;51.022;6.818;2022-11-15T12:41:22;17.00;99.90
6407;DHT22;3236;51.022;6.818;2022-11-15T12:43:51;17.60;99.90
6407;DHT22;3236;51.022;6.818;2022-11-15T12:49:09;18.70;99.50
6407;DHT22;3236;51.022;6.818;2022-11-15T12:52:05;20.20;97.50
6407;DHT22;3236;51.022;6.818;2022-11-15T12:54:55;19.60;95.70
6407;DHT22;3236;51.022;6.818;2022-11-15T12:57:39;19.10;95.00
6407;DHT22;3236;51.022;6.818;2022-11-15T13:03:33;18.10;96.40
6407;DHT22;3236;51.022;6.818;2022-11-15T13:06:04;17.70;97.80
6407;DHT22;3236;51.022;6.818;2022-11-15T13:08:50;17.40;99.70
6407;DHT22;3236;51.022;6.818;2022-11-15T13:11:47;16.80;99.90
6407;DHT22;3236;51.022;6.818;2022-11-15T13:14:39;16.80;99.90
6407;DHT22;3236;51.022;6.818;2022-11-15T13:17:33;16.50;99.90
6407;DHT22;3236;51.022;6.818;2022-11-15T13:20:23;17.00;99.90
6407;DHT22;3236;51.022;6.818;2022-11-15T13:22:52;17.20;99.90
6407;DHT22;3236;51.022;6.818;2022-11-15T13:28:32;17.90;99.90
6407;DHT22;3236;51.022;6.818;2022-11-15T13:31:01;17.00;99.90
6407;DHT22;3236;51.022;6.818;2022-11-15T13:33:32;17.10;99.90
6407;DHT22;3236;51.022;6.818;2022-11-15T13:36:04;17.00;99.90
6407;DHT22;3236;51.022;6.818;2022-11-15T13:38:34;16.40;99.90
6407;DHT22;3236;51.022;6.818;2022-11-15T13:41:14;16.20;99.90
6407;DHT22;3236;51.022;6.818;2022-11-15T13:43:44;15.30;99.90
6407;DHT22;3236;51.022;6.818;2022-11-15T13:46:13;15.30;99.90
6407;DHT22;3236;51.022;6.818;2022-11-15T13:48:41;15.20;99.90
6407;DHT22;3236;51.022;6.818;2022-11-15T13:51:16;14.90;99.90
6407;DHT22;3236;51.022;6.818;2022-11-15T13:53:47;14.70;99.90
6407;DHT22;3236;51.022;6.818;2022-11-15T13:56:16;15.10;99.90
6407;DHT22;3236;51.022;6.818;2022-11-15T13:58:45;15.10;99.90
6407;DHT22;3236;51.022;6.818;2022-11-15T14:01:16;14.90;99.90
6407;DHT22;3236;51.022;6.818;2022-11-15T14:03:52;15.00;99.90
6407;DHT22;3236;51.022;6.818;2022-11-15T14:06:26;14.70;99.90
6407;DHT22;3236;51.022;6.818;2022-11-15T14:09:24;15.40;99.90
6407;DHT22;3236;51.022;6.818;2022-11-15T14:11:53;15.10;99.90
6407;DHT22;3236;51.022;6.818;2022-11-15T14:14:22;14.60;99.90
6407;DHT22;3236;51.022;6.818;2022-11-15T14:16:51;15.10;99.90
6407;DHT22;3236;51.022;6.818;2022-11-15T14:19:37;14.50;99.90
6407;DHT22;3236;51.022;6.818;2022-11-15T14:22:11;14.40;99.90
6407;DHT22;3236;51.022;6.818;2022-11-15T14:24:39;14.40;99.90
6407;DHT22;3236;51.022;6.818;2022-11-15T14:27:22;14.80;99.90
6407;DHT22;3236;51.022;6.818;2022-11-15T14:29:49;14.20;99.90
6407;DHT22;3236;51.022;6.818;2022-11-15T14:34:48;14.40;99.90
6407;DHT22;3236;51.022;6.818;2022-11-15T14:37:23;14.30;99.90
6407;DHT22;3236;51.022;6.818;2022-11-15T14:39:51;14.90;99.90
6407;DHT22;3236;51.022;6.818;2022-11-15T14:42:24;14.70;99.90
6407;DHT22;3236;51.022;6.818;2022-11-15T14:44:52;14.00;99.90
6407;DHT22;3236;51.022;6.818;2022-11-15T14:47:19;14.30;99.90
6407;DHT22;3236;51.022;6.818;2022-11-15T14:49:46;14.40;99.90
6407;DHT22;3236;51.022;6.818;2022-11-15T14:52:30;14.30;99.90
6407;DHT22;3236;51.022;6.818;2022-11-15T14:55:10;14.00;99.90
6407;DHT22;3236;51.022;6.818;2022-11-15T15:05:14;13.70;99.90
6407;DHT22;3236;51.022;6.818;2022-11-15T15:12:40;13.60;99.90
6407;DHT22;3236;51.022;6.818;2022-11-15T15:15:15;13.80;99.90
6407;DHT22;3236;51.022;6.818;2022-11-15T15:20:31;13.90;99.90
6407;DHT22;3236;51.022;6.818;2022-11-15T15:23:00;13.70;99.90
6407;DHT22;3236;51.022;6.818;2022-11-15T15:25:29;13.70;99.90
6407;DHT22;3236;51.022;6.818;2022-11-15T15:30:27;13.70;99.90
6407;DHT22;3236;51.022;6.818;2022-11-15T15:35:22;13.70;99.90
6407;DHT22;3236;51.022;6.818;2022-11-15T15:37:50;13.70;99.90
6407;DHT22;3236;51.022;6.818;2022-11-15T15:40:20;13.60;99.90
6407;DHT22;3236;51.022;6.818;2022-11-15T15:42:48;11.80;99.90
6407;DHT22;3236;51.022;6.818;2022-11-15T15:47:45;13.60;99.90
6407;DHT22;3236;51.022;6.818;2022-11-15T15:50:29;13.60;99.90
6407;DHT22;3236;51.022;6.818;2022-11-15T15:53:00;13.40;99.90
6407;DHT22;3236;51.022;6.818;2022-11-15T15:57:56;13.40;99.90
6407;DHT22;3236;51.022;6.818;2022-11-15T16:00:27;13.50;99.90
6407;DHT22;3236;51.022;6.818;2022-11-15T16:02:54;13.50;99.90
6407;DHT22;3236;51.022;6.818;2022-11-15T16:05:22;13.80;99.90
6407;DHT22;3236;51.022;6.818;2022-11-15T16:07:50;14.30;99.90
6407;DHT22;3236;51.022;6.818;2022-11-15T16:10:27;13.10;99.90
6407;DHT22;3236;51.022;6.818;2022-11-15T16:13:00;13.80;99.90
6407;DHT22;3236;51.022;6.818;2022-11-15T16:17:58;13.70;99.90
6407;DHT22;3236;51.022;6.818;2022-11-15T16:20:38;13.60;99.90
6407;DHT22;3236;51.022;6.818;2022-11-15T16:23:08;13.50;99.90
6407;DHT22;3236;51.022;6.818;2022-11-15T16:25:42;13.50;99.90
6407;DHT22;3236;51.022;6.818;2022-11-15T16:28:26;13.40;99.90
6407;DHT22;3236;51.022;6.818;2022-11-15T16:31:02;13.50;99.90
6407;DHT22;3236;51.022;6.818;2022-11-15T16:36:00;13.50;99.90
6407;DHT22;3236;51.022;6.818;2022-11-15T16:38:31;13.40;99.90
6407;DHT22;3236;51.022;6.818;2022-11-15T16:45:57;13.50;99.90
6407;DHT22;3236;51.022;6.818;2022-11-15T16:48:28;13.50;99.90
6407;DHT22;3236;51.022;6.818;2022-11-15T16:50:55;13.50;99.90
6407;DHT22;3236;51.022;6.818;2022-11-15T16:53:25;13.70;99.90
6407;DHT22;3236;51.022;6.818;2022-11-15T17:00:54;13.50;99.90
6407;DHT22;3236;51.022;6.818;2022-11-15T17:03:22;13.40;99.90
6407;DHT22;3236;51.022;6.818;2022-11-15T17:10:46;13.50;99.90
6407;DHT22;3236;51.022;6.818;2022-11-15T17:13:13;13.60;99.90
6407;DHT22;3236;51.022;6.818;2022-11-15T17:15:41;13.40;99.90
6407;DHT22;3236;51.022;6.818;2022-11-15T17:18:11;13.40;99.90
6407;DHT22;3236;51.022;6.818;2022-11-15T17:20:40;13.40;99.90
6407;DHT22;3236;51.022;6.818;2022-11-15T17:23:12;13.30;99.90
6407;DHT22;3236;51.022;6.818;2022-11-15T17:28:14;13.00;99.90
6407;DHT22;3236;51.022;6.818;2022-11-15T17:30:41;13.00;99.90
6407;DHT22;3236;51.022;6.818;2022-11-15T17:33:10;13.20;99.90
6407;DHT22;3236;51.022;6.818;2022-11-15T17:35:38;13.30;99.90
6407;DHT22;3236;51.022;6.818;2022-11-15T17:40:37;12.90;99.90
6407;DHT22;3236;51.022;6.818;2022-11-15T17:43:05;12.80;99.90
6407;DHT22;3236;51.022;6.818;2022-11-15T17:45:41;13.50;99.90
6407;DHT22;3236;51.022;6.818;2022-11-15T17:48:13;13.10;99.90
6407;DHT22;3236;51.022;6.818;2022-11-15T17:50:40;13.10;99.90
6407;DHT22;3236;51.022;6.818;2022-11-15T17:53:07;13.20;99.90
6407;DHT22;3236;51.022;6.818;2022-11-15T17:55:34;13.20;99.90
6407;DHT22;3236;51.022;6.818;2022-11-15T18:05:31;12.60;99.90
6407;DHT22;3236;51.022;6.818;2022-11-15T18:07:58;12.40;99.90
6407;DHT22;3236;51.022;6.818;2022-11-15T18:10:34;12.30;99.90
6407;DHT22;3236;51.022;6.818;2022-11-15T18:13:07;12.50;99.90
6407;DHT22;3236;51.022;6.818;2022-11-15T18:18:04;12.00;99.90
6407;DHT22;3236;51.022;6.818;2022-11-15T18:23:00;12.00;99.90
6407;DHT22;3236;51.022;6.818;2022-11-15T18:27:55;12.00;99.90
6407;DHT22;3236;51.022;6.818;2022-11-15T18:30:22;12.10;99.90
6407;DHT22;3236;51.022;6.818;2022-11-15T18:32:49;11.90;99.90
6407;DHT22;3236;51.022;6.818;2022-11-15T18:35:18;11.90;99.90
6407;DHT22;3236;51.022;6.818;2022-11-15T18:37:47;12.10;99.90
6407;DHT22;3236;51.022;6.818;2022-11-15T18:40:16;11.80;99.90
6407;DHT22;3236;51.022;6.818;2022-11-15T18:45:11;11.90;99.90
6407;DHT22;3236;51.022;6.818;2022-11-15T18:47:38;11.90;99.90
6407;DHT22;3236;51.022;6.818;2022-11-15T18:52:33;11.80;99.90
6407;DHT22;3236;51.022;6.818;2022-11-15T18:55:02;11.80;99.90
6407;DHT22;3236;51.022;6.818;2022-11-15T18:57:30;11.50;99.90
6407;DHT22;3236;51.022;6.818;2022-11-15T18:59:57;11.50;99.90
6407;DHT22;3236;51.022;6.818;2022-11-15T19:02:24;12.80;99.90
6407;DHT22;3236;51.022;6.818;2022-11-15T19:04:55;11.50;99.90
6407;DHT22;3236;51.022;6.818;2022-11-15T19:07:25;11.70;99.90
6407;DHT22;3236;51.022;6.818;2022-11-15T19:20:05;11.70;99.90
6407;DHT22;3236;51.022;6.818;2022-11-15T19:22:32;11.70;99.90
6407;DHT22;3236;51.022;6.818;2022-11-15T19:25:00;11.60;99.90
6407;DHT22;3236;51.022;6.818;2022-11-15T19:27:30;11.60;99.90
6407;DHT22;3236;51.022;6.818;2022-11-15T19:29:57;11.80;99.90
6407;DHT22;3236;51.022;6.818;2022-11-15T19:32:27;11.40;99.90
6407;DHT22;3236;51.022;6.818;2022-11-15T19:34:54;11.60;99.90
6407;DHT22;3236;51.022;6.818;2022-11-15T19:37:21;11.60;99.90
6407;DHT22;3236;51.022;6.818;2022-11-15T19:39:48;11.30;99.90
6407;DHT22;3236;51.022;6.818;2022-11-15T19:42:15;11.40;99.90
6407;DHT22;3236;51.022;6.818;2022-11-15T19:44:47;11.60;99.90
6407;DHT22;3236;51.022;6.818;2022-11-15T19:55:00;11.70;99.90
6407;DHT22;3236;51.022;6.818;2022-11-15T19:57:29;11.60;99.90